sensor_id;sensor_type;location;lat;lon;timestamp;temperature;humidity
20291;DHT22;10304;51.074;13.754;2024-02-21T00:01:24;12.10;99.90
20291;DHT22;10304;51.074;13.754;2024-02-21T00:03:51;12.10;99.90
20291;DHT22;10304;51.074;13.754;2024-02-21T00:06:18;12.10;99.90
20291;DHT22;10304;51.074;13.754;2024-02-21T00:08:45;12.10;99.90
20291;DHT22;10304;51.074;13.754;2024-02-21T00:11:12;12.20;99.90
20291;DHT22;10304;51.074;13.754;2024-02-21T00:13:39;12.10;99.90
20291;DHT22;10304;51.074;13.754;2024-02-21T00:16:06;12.00;99.90
20291;DHT22;10304;51.074;13.754;2024-02-21T00:18:33;12.00;99.90
20291;DHT22;10304;51.074;13.754;2024-02-21T00:21:00;12.00;99.90
20291;DHT22;10304;51.074;13.754;2024-02-21T00:23:28;12.00;99.90
20291;DHT22;10304;51.074;13.754;2024-02-21T00:25:55;12.00;99.90
20291;DHT22;10304;51.074;13.754;2024-02-21T00:28:22;11.90;99.90
20291;DHT22;10304;51.074;13.754;2024-02-21T00:30:49;11.90;99.90
20291;DHT22;10304;51.074;13.754;2024-02-21T00:33:31;11.90;99.90
20291;DHT22;10304;51.074;13.754;2024-02-21T00:36:00;11.80;99.90
20291;DHT22;10304;51.074;13.754;2024-02-21T00:38:26;11.80;99.90
20291;DHT22;10304;51.074;13.754;2024-02-21T00:40:53;11.80;99.90
20291;DHT22;10304;51.074;13.754;2024-02-21T00:43:20;11.80;99.90
20291;DHT22;10304;51.074;13.754;2024-02-21T00:45:50;11.80;99.90
20291;DHT22;10304;51.074;13.754;2024-02-21T00:48:17;11.80;99.90
20291;DHT22;10304;51.074;13.754;2024-02-21T00:50:44;11.80;99.90
20291;DHT22;10304;51.074;13.754;2024-02-21T00:53:11;11.80;99.90
20291;DHT22;10304;51.074;13.754;2024-02-21T00:55:38;11.80;99.90
20291;DHT22;10304;51.074;13.754;2024-02-21T00:58:05;11.80;99.90
20291;DHT22;10304;51.074;13.754;2024-02-21T01:00:32;11.70;99.90
20291;DHT22;10304;51.074;13.754;2024-02-21T01:02:59;11.80;99.90
20291;DHT22;10304;51.074;13.754;2024-02-21T01:05:26;11.80;99.90
20291;DHT22;10304;51.074;13.754;2024-02-21T01:07:54;11.70;99.90
20291;DHT22;10304;51.074;13.754;2024-02-21T01:10:21;11.80;99.90
20291;DHT22;10304;51.074;13.754;2024-02-21T01:12:49;11.80;99.90
20291;DHT22;10304;51.074;13.754;2024-02-21T01:15:16;11.80;99.90
20291;DHT22;10304;51.074;13.754;2024-02-21T01:17:44;11.80;99.90
20291;DHT22;10304;51.074;13.754;2024-02-21T01:20:11;11.80;99.90
20291;DHT22;10304;51.074;13.754;2024-02-21T01:22:38;11.90;99.90
20291;DHT22;10304;51.074;13.754;2024-02-21T01:25:05;11.90;99.90
20291;DHT22;10304;51.074;13.754;2024-02-21T01:27:32;11.80;99.90
20291;DHT22;10304;51.074;13.754;2024-02-21T01:29:59;11.90;99.90
20291;DHT22;10304;51.074;13.754;2024-02-21T01:32:26;11.80;99.90
20291;DHT22;10304;51.074;13.754;2024-02-21T01:34:53;11.80;99.90
20291;DHT22;10304;51.074;13.754;2024-02-21T01:37:20;11.80;99.90
20291;DHT22;10304;51.074;13.754;2024-02-21T01:39:47;11.70;99.90
20291;DHT22;10304;51.074;13.754;2024-02-21T01:42:16;11.80;99.90
20291;DHT22;10304;51.074;13.754;2024-02-21T01:44:43;11.80;99.90
20291;DHT22;10304;51.074;13.754;2024-02-21T01:47:11;11.80;99.90
20291;DHT22;10304;51.074;13.754;2024-02-21T01:49:43;11.80;99.90
20291;DHT22;10304;51.074;13.754;2024-02-21T01:52:11;11.70;99.90
20291;DHT22;10304;51.074;13.754;2024-02-21T01:54:40;11.80;99.90
20291;DHT22;10304;51.074;13.754;2024-02-21T01:57:07;11.80;99.90
20291;DHT22;10304;51.074;13.754;2024-02-21T01:59:34;11.70;99.90
20291;DHT22;10304;51.074;13.754;2024-02-21T02:02:02;11.70;99.90
20291;DHT22;10304;51.074;13.754;2024-02-21T02:04:29;11.70;99.90
20291;DHT22;10304;51.074;13.754;2024-02-21T02:06:58;11.70;99.90
20291;DHT22;10304;51.074;13.754;2024-02-21T02:09:26;11.70;99.90
20291;DHT22;10304;51.074;13.754;2024-02-21T02:11:53;11.60;99.90
20291;DHT22;10304;51.074;13.754;2024-02-21T02:14:20;11.60;99.90
20291;DHT22;10304;51.074;13.754;2024-02-21T02:16:47;11.70;99.90
20291;DHT22;10304;51.074;13.754;2024-02-21T02:19:14;11.70;99.90
20291;DHT22;10304;51.074;13.754;2024-02-21T02:21:46;11.70;99.90
20291;DHT22;10304;51.074;13.754;2024-02-21T02:24:20;11.70;99.90
20291;DHT22;10304;51.074;13.754;2024-02-21T02:26:47;11.70;99.90
20291;DHT22;10304;51.074;13.754;2024-02-21T02:29:14;11.70;99.90
20291;DHT22;10304;51.074;13.754;2024-02-21T02:31:41;11.70;99.90
20291;DHT22;10304;51.074;13.754;2024-02-21T02:34:07;11.70;99.90
20291;DHT22;10304;51.074;13.754;2024-02-21T02:36:36;11.70;99.90
20291;DHT22;10304;51.074;13.754;2024-02-21T02:39:02;11.70;99.90
20291;DHT22;10304;51.074;13.754;2024-02-21T02:41:29;11.70;99.90
20291;DHT22;10304;51.074;13.754;2024-02-21T02:43:56;11.70;99.90
20291;DHT22;10304;51.074;13.754;2024-02-21T02:46:23;11.70;99.90
20291;DHT22;10304;51.074;13.754;2024-02-21T02:48:50;11.70;99.90
20291;DHT22;10304;51.074;13.754;2024-02-21T02:51:17;11.70;99.90
20291;DHT22;10304;51.074;13.754;2024-02-21T02:53:44;11.70;99.90
20291;DHT22;10304;51.074;13.754;2024-02-21T02:56:15;11.70;99.90
20291;DHT22;10304;51.074;13.754;2024-02-21T02:58:43;11.70;99.90
20291;DHT22;10304;51.074;13.754;2024-02-21T03:01:10;11.70;99.90
20291;DHT22;10304;51.074;13.754;2024-02-21T03:03:37;11.70;99.90
20291;DHT22;10304;51.074;13.754;2024-02-21T03:06:04;11.60;99.90
20291;DHT22;10304;51.074;13.754;2024-02-21T03:08:31;11.60;99.90
20291;DHT22;10304;51.074;13.754;2024-02-21T03:10:59;11.60;99.90
20291;DHT22;10304;51.074;13.754;2024-02-21T03:13:27;11.60;99.90
20291;DHT22;10304;51.074;13.754;2024-02-21T03:15:54;11.60;99.90
20291;DHT22;10304;51.074;13.754;2024-02-21T03:18:20;11.60;99.90
20291;DHT22;10304;51.074;13.754;2024-02-21T03:20:48;11.60;99.90
20291;DHT22;10304;51.074;13.754;2024-02-21T03:23:15;11.50;99.90
20291;DHT22;10304;51.074;13.754;2024-02-21T03:25:42;11.50;99.90
20291;DHT22;10304;51.074;13.754;2024-02-21T03:28:09;11.60;99.90
20291;DHT22;10304;51.074;13.754;2024-02-21T03:30:35;11.60;99.90
20291;DHT22;10304;51.074;13.754;2024-02-21T03:33:02;11.60;99.90
20291;DHT22;10304;51.074;13.754;2024-02-21T03:35:29;11.60;99.90
20291;DHT22;10304;51.074;13.754;2024-02-21T03:37:56;11.60;99.90
20291;DHT22;10304;51.074;13.754;2024-02-21T03:40:23;11.60;99.90
20291;DHT22;10304;51.074;13.754;2024-02-21T03:42:50;11.50;99.90
20291;DHT22;10304;51.074;13.754;2024-02-21T03:45:17;11.60;99.90
20291;DHT22;10304;51.074;13.754;2024-02-21T03:47:44;11.60;99.90
20291;DHT22;10304;51.074;13.754;2024-02-21T03:50:11;11.60;99.90
20291;DHT22;10304;51.074;13.754;2024-02-21T03:52:38;11.60;99.90
20291;DHT22;10304;51.074;13.754;2024-02-21T03:55:05;11.60;99.90
20291;DHT22;10304;51.074;13.754;2024-02-21T03:57:34;11.60;99.90
20291;DHT22;10304;51.074;13.754;2024-02-21T04:00:01;11.60;99.90
20291;DHT22;10304;51.074;13.754;2024-02-21T04:02:30;11.60;99.90
20291;DHT22;10304;51.074;13.754;2024-02-21T04:04:56;11.60;99.90
20291;DHT22;10304;51.074;13.754;2024-02-21T04:07:23;11.60;99.90
20291;DHT22;10304;51.074;13.754;2024-02-21T04:09:50;11.70;99.90
20291;DHT22;10304;51.074;13.754;2024-02-21T04:12:17;11.60;99.90
20291;DHT22;10304;51.074;13.754;2024-02-21T04:14:44;11.70;99.90
20291;DHT22;10304;51.074;13.754;2024-02-21T04:17:13;11.70;99.90
20291;DHT22;10304;51.074;13.754;2024-02-21T04:19:40;11.70;99.90
20291;DHT22;10304;51.074;13.754;2024-02-21T04:22:06;11.70;99.90
20291;DHT22;10304;51.074;13.754;2024-02-21T04:24:33;11.70;99.90
20291;DHT22;10304;51.074;13.754;2024-02-21T04:27:00;11.80;99.90
20291;DHT22;10304;51.074;13.754;2024-02-21T04:29:27;11.90;99.90
20291;DHT22;10304;51.074;13.754;2024-02-21T04:31:55;11.80;99.90
20291;DHT22;10304;51.074;13.754;2024-02-21T04:34:22;11.90;99.90
20291;DHT22;10304;51.074;13.754;2024-02-21T04:36:49;11.90;99.90
20291;DHT22;10304;51.074;13.754;2024-02-21T04:39:15;11.90;99.90
20291;DHT22;10304;51.074;13.754;2024-02-21T04:41:42;11.80;99.90
20291;DHT22;10304;51.074;13.754;2024-02-21T04:44:09;11.90;99.90
20291;DHT22;10304;51.074;13.754;2024-02-21T04:46:36;11.80;99.90
20291;DHT22;10304;51.074;13.754;2024-02-21T04:49:03;11.80;99.90
20291;DHT22;10304;51.074;13.754;2024-02-21T04:51:29;11.80;99.90
20291;DHT22;10304;51.074;13.754;2024-02-21T04:53:56;11.80;99.90
20291;DHT22;10304;51.074;13.754;2024-02-21T04:56:23;11.80;99.90
20291;DHT22;10304;51.074;13.754;2024-02-21T04:58:50;11.80;99.90
20291;DHT22;10304;51.074;13.754;2024-02-21T05:01:18;11.70;99.90
20291;DHT22;10304;51.074;13.754;2024-02-21T05:03:44;11.80;99.90
20291;DHT22;10304;51.074;13.754;2024-02-21T05:06:11;11.70;99.90
20291;DHT22;10304;51.074;13.754;2024-02-21T05:08:39;11.80;99.90
20291;DHT22;10304;51.074;13.754;2024-02-21T05:11:06;11.70;99.90
20291;DHT22;10304;51.074;13.754;2024-02-21T05:13:34;11.80;99.90
20291;DHT22;10304;51.074;13.754;2024-02-21T05:16:01;11.80;99.90
20291;DHT22;10304;51.074;13.754;2024-02-21T05:18:28;11.80;99.90
20291;DHT22;10304;51.074;13.754;2024-02-21T05:20:55;11.80;99.90
20291;DHT22;10304;51.074;13.754;2024-02-21T05:23:22;11.80;99.90
20291;DHT22;10304;51.074;13.754;2024-02-21T05:25:50;11.70;99.90
20291;DHT22;10304;51.074;13.754;2024-02-21T05:28:17;11.80;99.90
20291;DHT22;10304;51.074;13.754;2024-02-21T05:30:44;11.80;99.90
20291;DHT22;10304;51.074;13.754;2024-02-21T05:33:11;11.90;99.90
20291;DHT22;10304;51.074;13.754;2024-02-21T05:35:39;11.90;99.90
20291;DHT22;10304;51.074;13.754;2024-02-21T05:38:06;11.90;99.90
20291;DHT22;10304;51.074;13.754;2024-02-21T05:40:38;11.90;99.90
20291;DHT22;10304;51.074;13.754;2024-02-21T05:43:06;11.90;99.90
20291;DHT22;10304;51.074;13.754;2024-02-21T05:45:33;11.80;99.90
20291;DHT22;10304;51.074;13.754;2024-02-21T05:48:00;11.80;99.90
20291;DHT22;10304;51.074;13.754;2024-02-21T05:50:27;11.80;99.90
20291;DHT22;10304;51.074;13.754;2024-02-21T05:52:55;11.70;99.90
20291;DHT22;10304;51.074;13.754;2024-02-21T05:55:22;11.80;99.90
20291;DHT22;10304;51.074;13.754;2024-02-21T05:57:49;11.70;99.90
20291;DHT22;10304;51.074;13.754;2024-02-21T06:00:17;11.70;99.90
20291;DHT22;10304;51.074;13.754;2024-02-21T06:02:44;11.70;99.90
20291;DHT22;10304;51.074;13.754;2024-02-21T06:05:11;11.70;99.90
20291;DHT22;10304;51.074;13.754;2024-02-21T06:07:38;11.70;99.90
20291;DHT22;10304;51.074;13.754;2024-02-21T06:10:06;11.60;99.90
20291;DHT22;10304;51.074;13.754;2024-02-21T06:12:33;11.60;99.90
20291;DHT22;10304;51.074;13.754;2024-02-21T06:15:00;11.60;99.90
20291;DHT22;10304;51.074;13.754;2024-02-21T06:17:27;11.60;99.90
20291;DHT22;10304;51.074;13.754;2024-02-21T06:19:54;11.60;99.90
20291;DHT22;10304;51.074;13.754;2024-02-21T06:22:21;11.60;99.90
20291;DHT22;10304;51.074;13.754;2024-02-21T06:24:48;11.50;99.90
20291;DHT22;10304;51.074;13.754;2024-02-21T06:27:15;11.60;99.90
20291;DHT22;10304;51.074;13.754;2024-02-21T06:29:45;11.60;99.90
20291;DHT22;10304;51.074;13.754;2024-02-21T06:32:12;11.60;99.90
20291;DHT22;10304;51.074;13.754;2024-02-21T06:34:39;11.70;99.90
20291;DHT22;10304;51.074;13.754;2024-02-21T06:37:06;11.70;99.90
20291;DHT22;10304;51.074;13.754;2024-02-21T06:39:33;11.70;99.90
20291;DHT22;10304;51.074;13.754;2024-02-21T06:41:59;11.70;99.90
20291;DHT22;10304;51.074;13.754;2024-02-21T06:44:29;11.60;99.90
20291;DHT22;10304;51.074;13.754;2024-02-21T06:46:56;11.60;99.90
20291;DHT22;10304;51.074;13.754;2024-02-21T06:49:25;11.60;99.90
20291;DHT22;10304;51.074;13.754;2024-02-21T06:51:52;11.60;99.90
20291;DHT22;10304;51.074;13.754;2024-02-21T06:54:19;11.60;99.90
20291;DHT22;10304;51.074;13.754;2024-02-21T06:56:46;11.60;99.90
20291;DHT22;10304;51.074;13.754;2024-02-21T06:59:13;11.60;99.90
20291;DHT22;10304;51.074;13.754;2024-02-21T07:01:53;11.60;99.90
20291;DHT22;10304;51.074;13.754;2024-02-21T07:04:20;11.60;1.00
20291;DHT22;10304;51.074;13.754;2024-02-21T07:06:47;11.70;1.00
20291;DHT22;10304;51.074;13.754;2024-02-21T07:09:14;11.70;1.00
20291;DHT22;10304;51.074;13.754;2024-02-21T07:11:41;11.70;99.90
20291;DHT22;10304;51.074;13.754;2024-02-21T07:14:08;11.70;99.90
20291;DHT22;10304;51.074;13.754;2024-02-21T07:16:34;11.70;99.90
20291;DHT22;10304;51.074;13.754;2024-02-21T07:19:02;11.80;99.90
20291;DHT22;10304;51.074;13.754;2024-02-21T07:21:29;11.80;99.90
20291;DHT22;10304;51.074;13.754;2024-02-21T07:23:57;11.80;99.90
20291;DHT22;10304;51.074;13.754;2024-02-21T07:26:24;11.80;99.90
20291;DHT22;10304;51.074;13.754;2024-02-21T07:28:50;11.90;99.90
20291;DHT22;10304;51.074;13.754;2024-02-21T07:31:17;11.90;99.90
20291;DHT22;10304;51.074;13.754;2024-02-21T07:33:44;11.90;99.90
20291;DHT22;10304;51.074;13.754;2024-02-21T07:36:11;11.90;99.90
20291;DHT22;10304;51.074;13.754;2024-02-21T07:38:39;12.00;99.90
20291;DHT22;10304;51.074;13.754;2024-02-21T07:41:05;12.00;99.90
20291;DHT22;10304;51.074;13.754;2024-02-21T07:43:32;12.10;99.90
20291;DHT22;10304;51.074;13.754;2024-02-21T07:46:00;12.10;99.90
20291;DHT22;10304;51.074;13.754;2024-02-21T07:48:26;12.10;99.90
20291;DHT22;10304;51.074;13.754;2024-02-21T07:50:56;12.20;99.90
20291;DHT22;10304;51.074;13.754;2024-02-21T07:53:22;12.20;99.90
20291;DHT22;10304;51.074;13.754;2024-02-21T07:55:49;12.30;99.90
20291;DHT22;10304;51.074;13.754;2024-02-21T07:58:16;12.30;99.90
20291;DHT22;10304;51.074;13.754;2024-02-21T08:00:43;12.20;99.90
20291;DHT22;10304;51.074;13.754;2024-02-21T08:03:10;12.20;99.90
20291;DHT22;10304;51.074;13.754;2024-02-21T08:05:37;12.30;99.90
20291;DHT22;10304;51.074;13.754;2024-02-21T08:08:04;12.30;99.90
20291;DHT22;10304;51.074;13.754;2024-02-21T08:10:31;12.30;99.90
20291;DHT22;10304;51.074;13.754;2024-02-21T08:12:58;12.30;99.90
20291;DHT22;10304;51.074;13.754;2024-02-21T08:15:25;12.30;99.90
20291;DHT22;10304;51.074;13.754;2024-02-21T08:17:56;12.30;99.90
20291;DHT22;10304;51.074;13.754;2024-02-21T08:20:27;12.40;99.90
20291;DHT22;10304;51.074;13.754;2024-02-21T08:22:53;12.50;99.90
20291;DHT22;10304;51.074;13.754;2024-02-21T08:25:20;12.50;99.90
20291;DHT22;10304;51.074;13.754;2024-02-21T08:27:47;12.50;99.90
20291;DHT22;10304;51.074;13.754;2024-02-21T08:30:14;12.50;99.90
20291;DHT22;10304;51.074;13.754;2024-02-21T08:32:41;12.60;99.90
20291;DHT22;10304;51.074;13.754;2024-02-21T08:35:08;12.60;99.90
20291;DHT22;10304;51.074;13.754;2024-02-21T08:37:35;12.50;99.90
20291;DHT22;10304;51.074;13.754;2024-02-21T08:40:03;12.50;99.90
20291;DHT22;10304;51.074;13.754;2024-02-21T08:42:36;12.50;99.90
20291;DHT22;10304;51.074;13.754;2024-02-21T08:45:03;12.50;99.90
20291;DHT22;10304;51.074;13.754;2024-02-21T08:47:31;12.50;99.90
20291;DHT22;10304;51.074;13.754;2024-02-21T08:49:58;12.60;99.90
20291;DHT22;10304;51.074;13.754;2024-02-21T08:56:02;12.50;99.90
20291;DHT22;10304;51.074;13.754;2024-02-21T08:58:30;12.50;99.90
20291;DHT22;10304;51.074;13.754;2024-02-21T09:00:57;12.50;99.90
20291;DHT22;10304;51.074;13.754;2024-02-21T09:03:23;12.60;99.90
20291;DHT22;10304;51.074;13.754;2024-02-21T09:05:50;12.50;99.90
20291;DHT22;10304;51.074;13.754;2024-02-21T09:08:17;12.50;99.90
20291;DHT22;10304;51.074;13.754;2024-02-21T09:10:45;12.50;99.90
20291;DHT22;10304;51.074;13.754;2024-02-21T09:13:12;12.40;99.90
20291;DHT22;10304;51.074;13.754;2024-02-21T09:15:38;12.40;99.90
20291;DHT22;10304;51.074;13.754;2024-02-21T09:18:05;12.40;99.90
20291;DHT22;10304;51.074;13.754;2024-02-21T09:20:33;12.40;99.90
20291;DHT22;10304;51.074;13.754;2024-02-21T09:23:00;12.40;99.90
20291;DHT22;10304;51.074;13.754;2024-02-21T09:25:27;12.40;99.90
20291;DHT22;10304;51.074;13.754;2024-02-21T09:27:54;12.50;99.90
20291;DHT22;10304;51.074;13.754;2024-02-21T09:30:22;12.50;99.90
20291;DHT22;10304;51.074;13.754;2024-02-21T09:32:49;12.60;99.90
20291;DHT22;10304;51.074;13.754;2024-02-21T09:35:16;12.50;99.90
20291;DHT22;10304;51.074;13.754;2024-02-21T09:37:43;12.60;99.90
20291;DHT22;10304;51.074;13.754;2024-02-21T09:40:12;12.60;99.90
20291;DHT22;10304;51.074;13.754;2024-02-21T09:42:42;12.60;99.90
20291;DHT22;10304;51.074;13.754;2024-02-21T09:45:20;12.60;99.90
20291;DHT22;10304;51.074;13.754;2024-02-21T09:48:19;12.60;99.90
20291;DHT22;10304;51.074;13.754;2024-02-21T09:50:49;12.70;99.90
20291;DHT22;10304;51.074;13.754;2024-02-21T09:53:16;12.80;99.90
20291;DHT22;10304;51.074;13.754;2024-02-21T09:55:45;12.70;99.90
20291;DHT22;10304;51.074;13.754;2024-02-21T09:58:13;12.80;99.90
20291;DHT22;10304;51.074;13.754;2024-02-21T10:00:40;12.70;99.90
20291;DHT22;10304;51.074;13.754;2024-02-21T10:03:07;12.60;99.90
20291;DHT22;10304;51.074;13.754;2024-02-21T10:05:37;12.50;99.90
20291;DHT22;10304;51.074;13.754;2024-02-21T10:08:04;12.50;99.90
20291;DHT22;10304;51.074;13.754;2024-02-21T10:10:43;12.50;99.90
20291;DHT22;10304;51.074;13.754;2024-02-21T10:13:11;12.40;99.90
20291;DHT22;10304;51.074;13.754;2024-02-21T10:15:48;12.40;99.90
20291;DHT22;10304;51.074;13.754;2024-02-21T10:18:17;12.30;99.90
20291;DHT22;10304;51.074;13.754;2024-02-21T10:20:45;12.30;99.90
20291;DHT22;10304;51.074;13.754;2024-02-21T10:23:12;12.30;99.90
20291;DHT22;10304;51.074;13.754;2024-02-21T10:25:39;12.40;99.90
20291;DHT22;10304;51.074;13.754;2024-02-21T10:28:15;12.30;99.90
20291;DHT22;10304;51.074;13.754;2024-02-21T10:30:51;12.40;99.90
20291;DHT22;10304;51.074;13.754;2024-02-21T10:33:18;12.40;99.90
20291;DHT22;10304;51.074;13.754;2024-02-21T10:35:49;12.40;99.90
20291;DHT22;10304;51.074;13.754;2024-02-21T10:38:16;12.40;99.90
20291;DHT22;10304;51.074;13.754;2024-02-21T10:40:43;12.40;99.90
20291;DHT22;10304;51.074;13.754;2024-02-21T10:43:13;12.50;99.90
20291;DHT22;10304;51.074;13.754;2024-02-21T10:45:41;12.50;99.90
20291;DHT22;10304;51.074;13.754;2024-02-21T10:48:15;12.50;99.90
20291;DHT22;10304;51.074;13.754;2024-02-21T10:51:01;12.50;99.90
20291;DHT22;10304;51.074;13.754;2024-02-21T10:53:44;12.60;99.90
20291;DHT22;10304;51.074;13.754;2024-02-21T10:56:30;12.60;99.90
20291;DHT22;10304;51.074;13.754;2024-02-21T10:58:58;12.60;99.90
20291;DHT22;10304;51.074;13.754;2024-02-21T11:01:28;12.60;99.90
20291;DHT22;10304;51.074;13.754;2024-02-21T11:04:05;12.60;99.90
20291;DHT22;10304;51.074;13.754;2024-02-21T11:06:35;12.60;99.90
20291;DHT22;10304;51.074;13.754;2024-02-21T11:09:03;12.60;99.90
20291;DHT22;10304;51.074;13.754;2024-02-21T11:11:37;12.50;99.90
20291;DHT22;10304;51.074;13.754;2024-02-21T11:14:10;12.40;99.90
20291;DHT22;10304;51.074;13.754;2024-02-21T11:16:39;12.40;99.90
20291;DHT22;10304;51.074;13.754;2024-02-21T11:19:19;12.40;99.90
20291;DHT22;10304;51.074;13.754;2024-02-21T11:21:46;12.40;99.90
20291;DHT22;10304;51.074;13.754;2024-02-21T11:24:26;12.40;99.90
20291;DHT22;10304;51.074;13.754;2024-02-21T11:26:53;12.40;99.90
20291;DHT22;10304;51.074;13.754;2024-02-21T11:29:24;12.50;99.90
20291;DHT22;10304;51.074;13.754;2024-02-21T11:31:53;12.60;99.90
20291;DHT22;10304;51.074;13.754;2024-02-21T11:34:20;12.60;99.90
20291;DHT22;10304;51.074;13.754;2024-02-21T11:36:52;12.60;99.90
20291;DHT22;10304;51.074;13.754;2024-02-21T11:39:26;12.70;99.90
20291;DHT22;10304;51.074;13.754;2024-02-21T11:42:07;12.70;99.90
20291;DHT22;10304;51.074;13.754;2024-02-21T11:44:37;12.80;99.90
20291;DHT22;10304;51.074;13.754;2024-02-21T11:47:08;12.80;99.90
20291;DHT22;10304;51.074;13.754;2024-02-21T11:49:42;12.80;99.90
20291;DHT22;10304;51.074;13.754;2024-02-21T11:52:10;12.90;99.90
20291;DHT22;10304;51.074;13.754;2024-02-21T11:54:37;13.00;99.90
20291;DHT22;10304;51.074;13.754;2024-02-21T11:57:04;13.00;99.90
20291;DHT22;10304;51.074;13.754;2024-02-21T11:59:31;13.00;99.90
20291;DHT22;10304;51.074;13.754;2024-02-21T12:02:00;12.90;99.90
20291;DHT22;10304;51.074;13.754;2024-02-21T12:04:27;12.90;99.90
20291;DHT22;10304;51.074;13.754;2024-02-21T12:06:56;12.90;99.90
20291;DHT22;10304;51.074;13.754;2024-02-21T12:09:24;13.00;99.90
20291;DHT22;10304;51.074;13.754;2024-02-21T12:12:19;13.00;99.90
20291;DHT22;10304;51.074;13.754;2024-02-21T12:14:46;13.00;99.90
20291;DHT22;10304;51.074;13.754;2024-02-21T12:17:13;13.00;99.90
20291;DHT22;10304;51.074;13.754;2024-02-21T12:19:40;13.10;99.90
20291;DHT22;10304;51.074;13.754;2024-02-21T12:22:07;13.10;99.90
20291;DHT22;10304;51.074;13.754;2024-02-21T12:24:35;13.20;99.90
20291;DHT22;10304;51.074;13.754;2024-02-21T12:27:03;13.30;99.90
20291;DHT22;10304;51.074;13.754;2024-02-21T12:29:30;13.40;99.90
20291;DHT22;10304;51.074;13.754;2024-02-21T12:31:57;13.50;99.90
20291;DHT22;10304;51.074;13.754;2024-02-21T12:34:25;13.60;99.90
20291;DHT22;10304;51.074;13.754;2024-02-21T12:37:10;13.70;99.90
20291;DHT22;10304;51.074;13.754;2024-02-21T12:39:40;13.80;99.90
20291;DHT22;10304;51.074;13.754;2024-02-21T12:42:07;13.90;99.90
20291;DHT22;10304;51.074;13.754;2024-02-21T12:44:34;14.20;99.90
20291;DHT22;10304;51.074;13.754;2024-02-21T12:47:01;14.40;99.90
20291;DHT22;10304;51.074;13.754;2024-02-21T12:49:28;14.70;90.30
20291;DHT22;10304;51.074;13.754;2024-02-21T12:51:56;15.10;91.20
20291;DHT22;10304;51.074;13.754;2024-02-21T12:54:23;15.70;61.70
20291;DHT22;10304;51.074;13.754;2024-02-21T12:56:50;16.10;1.00
20291;DHT22;10304;51.074;13.754;2024-02-21T12:59:17;16.60;1.00
20291;DHT22;10304;51.074;13.754;2024-02-21T13:01:44;17.00;1.00
20291;DHT22;10304;51.074;13.754;2024-02-21T13:04:11;17.40;1.00
20291;DHT22;10304;51.074;13.754;2024-02-21T13:06:38;17.90;1.00
20291;DHT22;10304;51.074;13.754;2024-02-21T13:09:05;18.40;1.00
20291;DHT22;10304;51.074;13.754;2024-02-21T13:11:37;18.90;1.00
20291;DHT22;10304;51.074;13.754;2024-02-21T13:14:04;19.40;1.00
20291;DHT22;10304;51.074;13.754;2024-02-21T13:16:31;19.90;1.00
20291;DHT22;10304;51.074;13.754;2024-02-21T13:18:58;20.30;1.00
20291;DHT22;10304;51.074;13.754;2024-02-21T13:21:26;20.80;1.00
20291;DHT22;10304;51.074;13.754;2024-02-21T13:23:52;21.30;1.00
20291;DHT22;10304;51.074;13.754;2024-02-21T13:26:19;21.80;1.00
20291;DHT22;10304;51.074;13.754;2024-02-21T13:28:46;22.30;1.00
20291;DHT22;10304;51.074;13.754;2024-02-21T13:31:15;22.70;1.00
20291;DHT22;10304;51.074;13.754;2024-02-21T13:33:43;23.00;1.00
20291;DHT22;10304;51.074;13.754;2024-02-21T13:36:11;23.30;1.00
20291;DHT22;10304;51.074;13.754;2024-02-21T13:38:38;23.60;1.00
20291;DHT22;10304;51.074;13.754;2024-02-21T13:41:05;23.80;1.00
20291;DHT22;10304;51.074;13.754;2024-02-21T13:43:33;23.80;1.00
20291;DHT22;10304;51.074;13.754;2024-02-21T13:46:01;23.80;1.00
20291;DHT22;10304;51.074;13.754;2024-02-21T13:48:36;23.90;1.00
20291;DHT22;10304;51.074;13.754;2024-02-21T13:51:03;24.00;1.00
20291;DHT22;10304;51.074;13.754;2024-02-21T13:53:30;24.30;1.00
20291;DHT22;10304;51.074;13.754;2024-02-21T13:55:56;24.30;1.00
20291;DHT22;10304;51.074;13.754;2024-02-21T13:58:23;24.30;1.00
20291;DHT22;10304;51.074;13.754;2024-02-21T14:00:52;24.40;1.00
20291;DHT22;10304;51.074;13.754;2024-02-21T14:03:19;24.40;1.00
20291;DHT22;10304;51.074;13.754;2024-02-21T14:05:47;24.30;1.00
20291;DHT22;10304;51.074;13.754;2024-02-21T14:08:15;24.40;1.00
20291;DHT22;10304;51.074;13.754;2024-02-21T14:10:43;24.60;1.00
20291;DHT22;10304;51.074;13.754;2024-02-21T14:13:10;24.80;1.00
20291;DHT22;10304;51.074;13.754;2024-02-21T14:15:41;25.00;1.00
20291;DHT22;10304;51.074;13.754;2024-02-21T14:18:09;25.20;1.00
20291;DHT22;10304;51.074;13.754;2024-02-21T14:20:37;25.30;1.00
20291;DHT22;10304;51.074;13.754;2024-02-21T14:23:04;25.50;1.00
20291;DHT22;10304;51.074;13.754;2024-02-21T14:25:31;25.50;1.00
20291;DHT22;10304;51.074;13.754;2024-02-21T14:28:00;25.50;1.00
20291;DHT22;10304;51.074;13.754;2024-02-21T14:30:27;25.50;1.00
20291;DHT22;10304;51.074;13.754;2024-02-21T14:32:54;25.30;1.00
20291;DHT22;10304;51.074;13.754;2024-02-21T14:35:20;25.30;1.00
20291;DHT22;10304;51.074;13.754;2024-02-21T14:37:47;25.30;1.00
20291;DHT22;10304;51.074;13.754;2024-02-21T14:40:17;25.30;1.00
20291;DHT22;10304;51.074;13.754;2024-02-21T14:42:46;25.20;1.00
20291;DHT22;10304;51.074;13.754;2024-02-21T14:45:13;25.10;1.00
20291;DHT22;10304;51.074;13.754;2024-02-21T14:47:40;24.90;1.00
20291;DHT22;10304;51.074;13.754;2024-02-21T14:50:07;24.70;1.00
20291;DHT22;10304;51.074;13.754;2024-02-21T14:52:34;24.60;1.00
20291;DHT22;10304;51.074;13.754;2024-02-21T14:55:03;24.30;1.00
20291;DHT22;10304;51.074;13.754;2024-02-21T14:57:32;24.20;1.00
20291;DHT22;10304;51.074;13.754;2024-02-21T14:59:58;24.10;1.00
20291;DHT22;10304;51.074;13.754;2024-02-21T15:02:27;24.00;1.00
20291;DHT22;10304;51.074;13.754;2024-02-21T15:04:55;23.80;1.00
20291;DHT22;10304;51.074;13.754;2024-02-21T15:07:22;23.60;1.00
20291;DHT22;10304;51.074;13.754;2024-02-21T15:09:52;23.30;1.00
20291;DHT22;10304;51.074;13.754;2024-02-21T15:12:19;23.10;1.00
20291;DHT22;10304;51.074;13.754;2024-02-21T15:14:46;22.90;1.00
20291;DHT22;10304;51.074;13.754;2024-02-21T15:17:13;22.70;1.00
20291;DHT22;10304;51.074;13.754;2024-02-21T15:19:40;22.50;1.00
20291;DHT22;10304;51.074;13.754;2024-02-21T15:22:11;22.40;1.00
20291;DHT22;10304;51.074;13.754;2024-02-21T15:24:40;22.20;1.00
20291;DHT22;10304;51.074;13.754;2024-02-21T15:27:07;22.10;1.00